Port Lavaca, TX

03:49 AM CDT del 01 novembre 2014 (GMT -0500)
Port Lavaca | Change Station
CLOSE
Current Station
Aeroporto
Location: Port Lavaca,
Altitudine: 30 ft
Stazioni meteo nelle vicinanze

Alt. 30 ft 28.65 °N, 96.68 °W | Updated 14 minutes ago

Sereno
Sereno
53 °F
Sembra 53 °F
N
9
Vento Variabile Vento da Nord

Oggi
Massima -- | Minima -- °F
--% Possibilità di precip.
Ieri
Massima -- | Minima -- °F
Precip. -- in
7:38 AM 6:41 PM
Gobba a ponente, 64% visible
Pressione 30.28 in
Visibilità 10.0 miglia
Nuvole Sereno
Punto di rugiada 46 °F
Umidità 76%
Piovosità 0.00 in
Spessore del manto nevoso Non disponibile.
Raggi UV 0 fuori da 12
Polline 4.30 fuori da 12
Qualità dell'aria Non disponibile.
Flu Activity Non disponibile.
METAR KPKV 010835Z AUTO 01008KT 10SM CLR 12/08 A3028 RMK AO2 T01150075

More Conditions Fewer Conditions

Pressione 30.28 in
Visibilità 10.0 miglia
Nuvole Sereno
Punto di rugiada 46 °F
Umidità 76%
Piovosità 0.00 in
Spessore del manto nevoso Non disponibile.
Raggi UV 0 fuori da 12
Polline 4.30 fuori da 12
Qualità dell'aria Non disponibile.
Flu Activity Non disponibile.
METAR KPKV 010835Z AUTO 01008KT 10SM CLR 12/08 A3028 RMK AO2 T01150075

More Conditions Fewer Conditions

10-Day Weather Forecast

Almanac

Astronomia

Nov. 01, 2014 Alba Tramonto
Ora attuale
Crepuscolo civile
Crepuscolo nautico
Crepuscolo astronomico
Luna
Estensione della luce visibile
Lunghezza del giorno
Tomorrow will be .
, % of the Moon is Illuminated

Gli estremi di oggi

State Highs State Lows

Community

WunderPhotos

Upload Photos

1,766,871 foto caricate!

WunderBlogs® & News

Nearby

Qualità dell'aria

  Qualità dell'aria Indice AQ Inquinante
Not available.

Profondità neve

Stazione Profondità Altitudine

Attività sismica

Città  Distanza Mag. Data & Ora
Minimo Magnitudo Mostrato è 2.5.

Temperature delle acque costiere

Località Temperatura

Stazioni meteo nelle vicinanze